Time;durP1;ratioP1;P1;durP2;ratioP2;P2;SDS_P1;SDS_P2;PMS_P1;PMS_P2;Temp;Humidity;BMP_temperature;BMP_pressure;BME280_temperature;BME280_humidity;BME280_pressure;Samples;Min_cycle;Max_cycle;Signal;HPM_P1;HPM_P2
2023/07/14 00:00:53;;;;;;;4.55;2.75;;;18.20;99.90;;;;;;2093056;28;20028;-69
2023/07/14 00:01:53;;;;;;;3.75;2.63;;;18.20;99.90;;;;;;2091996;28;20033;-69
2023/07/14 00:02:55;;;;;;;3.72;2.80;;;18.20;99.90;;;;;;2091274;28;20025;-71
2023/07/14 00:03:56;;;;;;;3.10;2.80;;;18.20;99.90;;;;;;2092479;28;20024;-70
2023/07/14 00:04:57;;;;;;;4.72;2.88;;;18.10;99.90;;;;;;2092131;28;20036;-71
2023/07/14 00:05:58;;;;;;;3.35;2.63;;;18.20;99.90;;;;;;2091049;28;20033;-71
2023/07/14 00:06:58;;;;;;;3.85;3.20;;;18.20;99.90;;;;;;2092799;28;20039;-71
2023/07/14 00:07:59;;;;;;;4.90;3.45;;;18.20;99.90;;;;;;2090915;28;20032;-71
2023/07/14 00:09:00;;;;;;;5.25;3.17;;;18.20;99.90;;;;;;2094217;28;20029;-71
2023/07/14 00:10:00;;;;;;;5.70;3.00;;;18.10;99.90;;;;;;2092386;28;20468;-71
2023/07/14 00:11:01;;;;;;;4.70;2.70;;;18.10;99.90;;;;;;2093347;28;20473;-70
2023/07/14 00:12:02;;;;;;;6.13;3.00;;;18.10;99.90;;;;;;2093098;28;20086;-71
2023/07/14 00:13:05;;;;;;;4.82;2.80;;;18.10;99.90;;;;;;2092393;28;20137;-71
2023/07/14 00:14:05;;;;;;;7.78;3.03;;;18.10;99.90;;;;;;2092620;28;20392;-71
2023/07/14 00:15:06;;;;;;;3.85;2.67;;;18.10;99.90;;;;;;2090629;28;20029;-71
2023/07/14 00:16:16;;;;;;;6.50;2.88;;;18.10;99.90;;;;;;2092191;28;20049;-71
2023/07/14 00:17:16;;;;;;;3.28;2.55;;;18.10;99.90;;;;;;2092118;28;20033;-71
2023/07/14 00:18:23;;;;;;;4.47;2.80;;;18.10;99.90;;;;;;2094047;28;20029;-71
2023/07/14 00:19:24;;;;;;;6.70;3.58;;;18.10;99.90;;;;;;2093040;28;20427;-71
2023/07/14 00:20:28;;;;;;;5.78;3.05;;;18.10;99.90;;;;;;2091648;28;20024;-71
2023/07/14 00:21:29;;;;;;;3.92;3.03;;;18.00;99.90;;;;;;2094766;28;20067;-71
2023/07/14 00:22:30;;;;;;;5.05;2.78;;;18.00;99.90;;;;;;2092643;28;20127;-71
2023/07/14 00:23:31;;;;;;;4.28;3.03;;;18.00;99.90;;;;;;2090899;28;20284;-71
2023/07/14 00:24:32;;;;;;;7.55;3.05;;;18.00;99.90;;;;;;2092287;28;20024;-71
2023/07/14 00:25:33;;;;;;;4.45;3.20;;;18.00;99.90;;;;;;2094220;28;20025;-71
2023/07/14 00:26:33;;;;;;;4.30;3.00;;;18.00;99.90;;;;;;2093363;28;20107;-70
2023/07/14 00:27:34;;;;;;;6.88;2.63;;;18.00;99.90;;;;;;2091328;28;20028;-70
2023/07/14 00:28:34;;;;;;;3.88;2.95;;;18.00;99.90;;;;;;2091673;28;20024;-70
2023/07/14 00:29:38;;;;;;;4.28;2.45;;;18.00;99.90;;;;;;2091550;28;20056;-70
2023/07/14 00:30:39;;;;;;;3.42;2.53;;;17.90;99.90;;;;;;2090608;28;20029;-71
2023/07/14 00:31:39;;;;;;;3.60;2.22;;;18.00;99.90;;;;;;2091766;28;20024;-71
2023/07/14 00:32:40;;;;;;;4.25;3.17;;;18.00;99.90;;;;;;2091793;28;20098;-71
2023/07/14 00:33:43;;;;;;;4.28;2.95;;;18.00;99.90;;;;;;2091298;28;20021;-71
2023/07/14 00:34:45;;;;;;;5.03;2.50;;;18.00;99.90;;;;;;2090269;28;20060;-71
2023/07/14 00:35:47;;;;;;;3.47;2.65;;;17.90;99.90;;;;;;2092107;28;20025;-71
2023/07/14 00:36:48;;;;;;;6.68;3.13;;;18.00;99.90;;;;;;2092241;28;20020;-71
2023/07/14 00:37:49;;;;;;;5.15;3.20;;;18.00;99.90;;;;;;2091626;28;20109;-71
2023/07/14 00:38:50;;;;;;;4.47;3.22;;;18.00;99.90;;;;;;2091994;28;20037;-71
2023/07/14 00:39:50;;;;;;;3.85;3.10;;;18.00;99.90;;;;;;2091686;28;20111;-71
2023/07/14 00:40:51;;;;;;;5.57;3.28;;;18.00;99.90;;;;;;2089713;28;20663;-71
2023/07/14 00:41:52;;;;;;;4.68;3.08;;;17.90;99.90;;;;;;2092466;28;20770;-70
2023/07/14 00:42:55;;;;;;;5.63;3.60;;;17.90;99.90;;;;;;2091188;28;20028;-71
2023/07/14 00:43:56;;;;;;;3.95;3.55;;;17.90;99.90;;;;;;2091529;28;20091;-71
2023/07/14 00:44:57;;;;;;;7.05;3.97;;;17.90;99.90;;;;;;2091563;28;20020;-71
2023/07/14 00:45:58;;;;;;;4.90;3.50;;;17.90;99.90;;;;;;2091512;28;20119;-71
2023/07/14 00:46:58;;;;;;;8.40;3.60;;;17.90;99.90;;;;;;2091347;28;20029;-71
2023/07/14 00:48:03;;;;;;;11.02;3.53;;;17.80;99.90;;;;;;2093571;28;20526;-71
2023/07/14 00:49:10;;;;;;;6.80;3.83;;;17.80;99.90;;;;;;2093865;28;20467;-71
2023/07/14 00:50:24;;;;;;;6.47;3.67;;;17.80;99.90;;;;;;2091976;28;20028;-71
2023/07/14 00:51:28;;;;;;;6.50;3.70;;;17.80;99.90;;;;;;2092182;28;20063;-71
2023/07/14 00:52:36;;;;;;;4.90;3.55;;;17.80;99.90;;;;;;2091160;28;20105;-71
2023/07/14 00:53:39;;;;;;;6.05;3.58;;;17.70;99.90;;;;;;2092409;28;20035;-71
2023/07/14 00:54:46;;;;;;;10.85;3.75;;;17.70;99.90;;;;;;2092313;28;20013;-71
2023/07/14 00:55:52;;;;;;;6.75;3.38;;;17.70;99.90;;;;;;2091383;28;20942;-71
2023/07/14 00:56:55;;;;;;;5.10;3.60;;;17.70;99.90;;;;;;2090569;28;20029;-71
2023/07/14 00:57:56;;;;;;;5.65;3.55;;;17.70;99.90;;;;;;2092276;28;20091;-71
2023/07/14 00:58:58;;;;;;;4.25;3.10;;;17.70;99.90;;;;;;2089830;28;20021;-71
2023/07/14 01:00:14;;;;;;;5.05;3.42;;;17.70;99.90;;;;;;2091417;28;20021;-71
2023/07/14 01:01:21;;;;;;;6.68;3.55;;;17.70;99.90;;;;;;2092397;28;20409;-71
2023/07/14 01:02:23;;;;;;;5.05;3.67;;;17.70;99.90;;;;;;2089896;28;20039;-71
2023/07/14 01:03:24;;;;;;;6.50;4.13;;;17.70;99.90;;;;;;2092062;28;20035;-71
2023/07/14 01:04:24;;;;;;;6.35;3.38;;;17.70;99.90;;;;;;2093272;28;20020;-71
2023/07/14 01:05:27;;;;;;;7.75;3.30;;;17.70;99.90;;;;;;2091537;28;20036;-71
2023/07/14 01:06:29;;;;;;;7.18;3.83;;;17.70;99.90;;;;;;2092332;28;20032;-71
2023/07/14 01:07:35;;;;;;;5.53;3.13;;;17.70;99.90;;;;;;2091007;28;20111;-71
2023/07/14 01:08:40;;;;;;;8.30;3.40;;;17.70;99.90;;;;;;2092158;28;20032;-71
2023/07/14 01:09:41;;;;;;;4.90;3.28;;;17.70;99.90;;;;;;2090250;28;20483;-71
2023/07/14 01:10:42;;;;;;;5.75;3.38;;;17.60;99.90;;;;;;2091185;28;20029;-71
2023/07/14 01:11:51;;;;;;;5.65;3.60;;;17.60;99.90;;;;;;2091820;28;20115;-71
2023/07/14 01:13:06;;;;;;;5.88;3.70;;;17.70;99.90;;;;;;2091366;28;20068;-71
2023/07/14 01:14:16;;;;;;;7.07;3.53;;;17.60;99.90;;;;;;2091340;28;20325;-71
2023/07/14 01:15:16;;;;;;;6.43;3.20;;;17.60;99.90;;;;;;2090149;28;20370;-71
2023/07/14 01:16:18;;;;;;;9.07;3.72;;;17.60;99.90;;;;;;2092537;28;20048;-71
2023/07/14 01:17:21;;;;;;;8.68;3.55;;;17.60;99.90;;;;;;2091571;28;20025;-71
2023/07/14 01:18:22;;;;;;;3.90;3.22;;;17.60;99.90;;;;;;2093233;28;20025;-71
2023/07/14 01:19:46;;;;;;;4.78;3.15;;;17.60;99.90;;;;;;2092238;28;20111;-71
2023/07/14 01:20:47;;;;;;;5.75;3.55;;;17.60;99.90;;;;;;2091490;28;20074;-71
2023/07/14 01:21:54;;;;;;;6.47;3.15;;;17.60;99.90;;;;;;2091499;28;20066;-71
2023/07/14 01:23:25;;;;;;;6.60;3.42;;;17.60;99.90;;;;;;2092065;28;20029;-71
2023/07/14 01:24:35;;;;;;;7.07;3.30;;;17.70;99.90;;;;;;2093063;28;20523;-71
2023/07/14 01:25:35;;;;;;;3.45;3.15;;;17.60;99.90;;;;;;2091786;28;20116;-71
2023/07/14 01:26:56;;;;;;;4.53;2.80;;;17.60;99.90;;;;;;2092050;28;20028;-71
2023/07/14 01:27:56;;;;;;;;;;;17.70;99.90;;;;;;2091916;28;20033;-71
2023/07/14 01:28:57;;;;;;;5.70;3.35;;;17.60;99.90;;;;;;2091917;28;19982;-71
2023/07/14 01:29:59;;;;;;;5.43;3.20;;;17.60;99.90;;;;;;2090472;28;20035;-71
2023/07/14 01:31:00;;;;;;;8.93;2.80;;;17.70;99.90;;;;;;2090668;28;20029;-71
2023/07/14 01:32:02;;;;;;;8.27;2.85;;;17.70;99.90;;;;;;2092215;28;20028;-71
2023/07/14 01:33:04;;;;;;;5.18;3.20;;;17.70;99.90;;;;;;2092243;28;20020;-71
2023/07/14 01:34:05;;;;;;;3.42;2.50;;;17.70;99.90;;;;;;2090541;28;20032;-71
2023/07/14 01:35:07;;;;;;;4.22;2.92;;;17.80;99.90;;;;;;2091615;28;20044;-71
2023/07/14 01:36:08;;;;;;;6.07;3.50;;;17.80;99.90;;;;;;2092209;28;20070;-71
2023/07/14 01:37:09;;;;;;;6.00;3.53;;;17.80;99.90;;;;;;2090462;28;20013;-71
2023/07/14 01:38:09;;;;;;;4.35;2.90;;;17.80;99.90;;;;;;2092584;28;20017;-71
2023/07/14 01:39:11;;;;;;;4.25;2.60;;;17.80;99.90;;;;;;2092231;28;20024;-71
2023/07/14 01:40:17;;;;;;;6.50;2.90;;;17.80;99.90;;;;;;2091489;28;20020;-71
2023/07/14 01:41:18;;;;;;;4.05;3.10;;;17.80;99.90;;;;;;2094232;28;20055;-71
2023/07/14 01:42:20;;;;;;;10.60;3.38;;;17.80;99.90;;;;;;2092123;28;20025;-71
2023/07/14 01:43:22;;;;;;;8.90;3.33;;;17.80;99.90;;;;;;2092898;28;20013;-71
2023/07/14 01:44:24;;;;;;;3.53;2.85;;;17.90;99.90;;;;;;2090648;28;20023;-71
2023/07/14 01:45:29;;;;;;;5.03;3.28;;;17.80;99.90;;;;;;2091730;28;20021;-71
2023/07/14 01:46:30;;;;;;;5.47;3.35;;;17.80;99.90;;;;;;2091515;28;20020;-71
2023/07/14 01:47:31;;;;;;;3.95;3.03;;;17.80;99.90;;;;;;2092998;28;20027;-71
2023/07/14 01:48:48;;;;;;;4.05;2.90;;;17.90;99.90;;;;;;2092766;28;20029;-71
2023/07/14 01:49:51;;;;;;;5.45;3.28;;;17.90;99.90;;;;;;2090898;28;20025;-71
2023/07/14 01:50:56;;;;;;;4.65;3.38;;;17.90;99.90;;;;;;2091300;28;20055;-71
2023/07/14 01:52:01;;;;;;;6.93;3.55;;;17.90;99.90;;;;;;2092223;28;20129;-71
2023/07/14 01:53:08;;;;;;;7.53;3.35;;;17.90;99.90;;;;;;2091263;28;20116;-71
2023/07/14 01:54:33;;;;;;;7.95;3.70;;;17.90;99.90;;;;;;2091849;28;20035;-71
2023/07/14 01:55:34;;;;;;;5.05;2.70;;;17.90;99.90;;;;;;2090702;28;20017;-71
2023/07/14 01:56:37;;;;;;;3.72;3.03;;;17.90;99.90;;;;;;2091388;28;20032;-71
2023/07/14 01:57:38;;;;;;;4.13;2.67;;;17.90;99.90;;;;;;2091437;28;20024;-71
2023/07/14 01:58:56;;;;;;;3.65;2.80;;;17.80;99.90;;;;;;2091725;28;20021;-71
2023/07/14 02:00:04;;;;;;;3.25;2.95;;;17.90;99.90;;;;;;2090482;28;20034;-71
2023/07/14 02:01:06;;;;;;;6.45;3.17;;;17.80;99.90;;;;;;2092478;28;20024;-71
2023/07/14 02:02:12;;;;;;;4.78;3.35;;;17.80;99.90;;;;;;2091690;28;20037;-71
2023/07/14 02:03:17;;;;;;;5.78;2.63;;;17.90;99.90;;;;;;2092029;28;20017;-71
2023/07/14 02:04:24;;;;;;;3.90;2.58;;;17.90;99.90;;;;;;2091184;28;20025;-71
2023/07/14 02:05:43;;;;;;;5.18;3.03;;;17.90;99.90;;;;;;2091242;28;20053;-71
2023/07/14 02:06:44;;;;;;;6.43;3.00;;;17.80;99.90;;;;;;2090685;28;20017;-71
2023/07/14 02:07:47;;;;;;;4.75;2.90;;;17.80;99.90;;;;;;2091961;28;20020;-71
2023/07/14 02:08:48;;;;;;;3.60;3.20;;;17.80;99.90;;;;;;2091038;28;20396;-71
2023/07/14 02:09:49;;;;;;;8.00;2.97;;;17.80;99.90;;;;;;2092370;28;20052;-71
2023/07/14 02:10:50;;;;;;;6.05;3.30;;;17.80;99.90;;;;;;2092310;28;20025;-71
2023/07/14 02:12:04;;;;;;;3.60;2.97;;;17.90;99.90;;;;;;2091129;28;20029;-71
2023/07/14 02:13:05;;;;;;;6.82;3.05;;;17.80;99.90;;;;;;2091428;28;20052;-71
2023/07/14 02:14:14;;;;;;;4.25;2.58;;;17.80;99.90;;;;;;2093076;28;20033;-71
2023/07/14 02:15:18;;;;;;;6.85;3.08;;;17.80;99.90;;;;;;2093272;28;20013;-71
2023/07/14 02:16:20;;;;;;;5.03;3.13;;;17.80;99.90;;;;;;2092152;28;20377;-71
2023/07/14 02:17:33;;;;;;;5.82;3.33;;;17.80;99.90;;;;;;2092272;28;20028;-71
2023/07/14 02:18:35;;;;;;;3.40;3.00;;;17.80;99.90;;;;;;2090004;28;20743;-71
2023/07/14 02:19:36;;;;;;;3.00;2.65;;;17.80;99.90;;;;;;2091308;28;20476;-71
2023/07/14 02:20:40;;;;;;;6.13;3.03;;;17.70;99.90;;;;;;2090599;28;20419;-71
2023/07/14 02:21:42;;;;;;;3.50;2.97;;;17.80;99.90;;;;;;2091587;28;20025;-71
2023/07/14 02:22:44;;;;;;;8.40;2.72;;;17.70;99.90;;;;;;2091350;28;20035;-71
2023/07/14 02:23:45;;;;;;;6.70;3.22;;;17.70;99.90;;;;;;2090857;28;20052;-71
2023/07/14 02:24:47;;;;;;;4.55;3.03;;;17.70;99.90;;;;;;2091371;28;20026;-71
2023/07/14 02:26:03;;;;;;;5.57;3.00;;;17.70;99.90;;;;;;2090982;28;20028;-71
2023/07/14 02:27:05;;;;;;;3.50;2.75;;;17.70;99.90;;;;;;2091759;28;20029;-71
2023/07/14 02:28:05;;;;;;;3.95;2.63;;;17.70;99.90;;;;;;2091740;28;20392;-71
2023/07/14 02:29:10;;;;;;;3.35;2.80;;;17.70;99.90;;;;;;2091536;28;20024;-71
2023/07/14 02:30:17;;;;;;;3.55;2.58;;;17.70;99.90;;;;;;2091900;28;20029;-71
2023/07/14 02:31:30;;;;;;;4.63;3.15;;;17.70;99.90;;;;;;2092328;28;20432;-71
2023/07/14 02:32:37;;;;;;;3.67;3.15;;;17.70;99.90;;;;;;2092353;28;20048;-71
2023/07/14 02:33:41;;;;;;;4.65;3.20;;;17.60;99.90;;;;;;2091637;28;20021;-71
2023/07/14 02:34:53;;;;;;;7.10;3.15;;;17.60;99.90;;;;;;2091775;28;20021;-71
2023/07/14 02:36:20;;;;;;;5.63;2.45;;;17.60;99.90;;;;;;2092577;28;21495;-71
2023/07/14 02:38:05;;;;;;;5.07;2.97;;;17.60;99.90;;;;;;2091915;28;20039;-71
2023/07/14 02:39:07;;;;;;;5.13;3.20;;;17.50;99.90;;;;;;2090768;28;20475;-71
2023/07/14 02:40:11;;;;;;;4.18;3.22;;;17.50;99.90;;;;;;2091159;28;20032;-71
2023/07/14 02:41:24;;;;;;;3.47;3.17;;;17.50;99.90;;;;;;2091200;28;20029;-71
2023/07/14 02:42:25;;;;;;;4.40;3.05;;;17.50;99.90;;;;;;2090917;28;20028;-71
2023/07/14 02:43:26;;;;;;;5.13;3.22;;;17.50;99.90;;;;;;2091081;28;20036;-71
2023/07/14 02:44:36;;;;;;;4.72;3.00;;;17.50;99.90;;;;;;2091328;28;20095;-71
2023/07/14 02:45:43;;;;;;;4.13;2.53;;;17.50;99.90;;;;;;2091390;28;20025;-71
2023/07/14 02:46:52;;;;;;;2.65;2.45;;;17.40;99.90;;;;;;2091811;28;20113;-71
2023/07/14 02:47:56;;;;;;;5.18;3.00;;;17.40;99.90;;;;;;2093085;28;20537;-71
2023/07/14 02:48:57;;;;;;;3.90;3.35;;;17.40;99.90;;;;;;2092743;28;20036;-71
2023/07/14 02:49:58;;;;;;;6.88;3.60;;;17.40;99.90;;;;;;2092641;28;20057;-71
2023/07/14 02:50:58;;;;;;;7.97;3.03;;;17.40;99.90;;;;;;2091908;28;20047;-71
2023/07/14 02:51:59;;;;;;;4.53;2.65;;;17.40;99.90;;;;;;2092268;28;20029;-71
2023/07/14 02:53:00;;;;;;;6.53;3.42;;;17.40;99.90;;;;;;2092262;28;20557;-71
2023/07/14 02:54:00;;;;;;;4.47;3.22;;;17.40;99.90;;;;;;2092739;28;20021;-71
2023/07/14 02:55:02;;;;;;;5.22;2.80;;;17.40;99.90;;;;;;2090444;28;20534;-71
2023/07/14 02:56:03;;;;;;;4.10;3.47;;;17.40;99.90;;;;;;2090400;28;20526;-71
2023/07/14 02:57:04;;;;;;;6.93;3.25;;;17.40;99.90;;;;;;2091734;28;20173;-71
2023/07/14 02:58:05;;;;;;;7.63;3.00;;;17.40;99.90;;;;;;2090295;28;20029;-71
2023/07/14 02:59:09;;;;;;;10.23;3.55;;;17.40;99.90;;;;;;2091708;28;20052;-71
2023/07/14 03:00:10;;;;;;;5.88;3.25;;;17.30;99.90;;;;;;2090075;28;20024;-71
2023/07/14 03:01:11;;;;;;;5.35;3.08;;;17.30;99.90;;;;;;2089673;28;20024;-71
2023/07/14 03:02:11;;;;;;;7.88;3.28;;;17.30;99.90;;;;;;2090038;28;20021;-71
2023/07/14 03:03:12;;;;;;;4.60;3.22;;;17.30;99.90;;;;;;2089319;28;20024;-71
2023/07/14 03:04:13;;;;;;;5.65;3.97;;;17.30;99.90;;;;;;2089387;28;20057;-71
2023/07/14 03:05:13;;;;;;;4.13;3.35;;;17.30;99.90;;;;;;2091632;28;20035;-71
2023/07/14 03:06:17;;;;;;;3.92;3.45;;;17.30;99.90;;;;;;2091227;28;20024;-71
2023/07/14 03:07:17;;;;;;;6.72;3.72;;;17.30;99.90;;;;;;2090587;28;20021;-71
2023/07/14 03:08:18;;;;;;;7.20;3.83;;;17.30;99.90;;;;;;2090057;28;20021;-71
2023/07/14 03:09:19;;;;;;;8.85;4.15;;;17.20;99.90;;;;;;2089437;28;20070;-71
2023/07/14 03:10:20;;;;;;;8.32;3.45;;;17.20;99.90;;;;;;2090749;28;20104;-71
2023/07/14 03:11:20;;;;;;;6.60;3.63;;;17.20;99.90;;;;;;2090916;28;20020;-71
2023/07/14 03:12:21;;;;;;;5.15;3.33;;;17.20;99.90;;;;;;2090563;28;20112;-71
2023/07/14 03:13:22;;;;;;;7.88;3.33;;;17.20;99.90;;;;;;2090577;28;20914;-71
2023/07/14 03:14:22;;;;;;;7.82;3.53;;;17.20;99.90;;;;;;2091644;28;20047;-71
2023/07/14 03:15:24;;;;;;;6.70;3.67;;;17.20;99.90;;;;;;2090351;28;20035;-71
2023/07/14 03:16:26;;;;;;;4.03;3.08;;;17.20;99.90;;;;;;2091481;28;20116;-71
2023/07/14 03:17:26;;;;;;;5.35;3.03;;;17.20;99.90;;;;;;2091371;28;20032;-71
2023/07/14 03:18:27;;;;;;;4.22;3.05;;;17.20;99.90;;;;;;2090458;28;20464;-71
2023/07/14 03:19:27;;;;;;;3.42;3.13;;;17.20;99.90;;;;;;2089534;28;20037;-71
2023/07/14 03:20:28;;;;;;;7.05;3.63;;;17.20;99.90;;;;;;2089850;28;20029;-71
2023/07/14 03:21:29;;;;;;;7.78;3.50;;;17.20;99.90;;;;;;2090672;28;20485;-71
2023/07/14 03:22:30;;;;;;;4.45;3.08;;;17.20;99.90;;;;;;2092957;28;20028;-71
2023/07/14 03:23:32;;;;;;;7.15;3.30;;;17.20;99.90;;;;;;2092867;28;20032;-71
2023/07/14 03:24:33;;;;;;;3.67;3.00;;;17.20;99.90;;;;;;2091379;28;20423;-71
2023/07/14 03:25:34;;;;;;;6.03;3.20;;;17.20;99.90;;;;;;2093224;28;20097;-71
2023/07/14 03:26:35;;;;;;;7.00;3.80;;;17.20;99.90;;;;;;2093982;28;20023;-71
2023/07/14 03:27:36;;;;;;;4.30;2.90;;;17.20;99.90;;;;;;2094584;28;20040;-71
2023/07/14 03:28:37;;;;;;;4.80;2.90;;;17.10;99.90;;;;;;2093504;28;20083;-71
2023/07/14 03:29:38;;;;;;;4.22;3.03;;;17.10;99.90;;;;;;2091938;28;20115;-71
2023/07/14 03:30:40;;;;;;;3.85;2.58;;;17.10;99.90;;;;;;2092707;28;20028;-71
2023/07/14 03:31:41;;;;;;;5.85;2.75;;;17.10;99.90;;;;;;2092089;28;20087;-71
2023/07/14 03:32:42;;;;;;;4.97;3.13;;;17.10;99.90;;;;;;2093261;28;20082;-71
2023/07/14 03:33:43;;;;;;;4.13;2.95;;;17.10;99.90;;;;;;2093539;28;20060;-71
2023/07/14 03:34:43;;;;;;;3.38;2.95;;;17.10;99.90;;;;;;2092533;28;20029;-71
2023/07/14 03:35:44;;;;;;;5.38;2.70;;;17.10;99.90;;;;;;2091815;28;20029;-71
2023/07/14 03:36:45;;;;;;;5.05;3.30;;;17.10;99.90;;;;;;2092107;28;20436;-71
2023/07/14 03:37:48;;;;;;;7.40;3.45;;;17.10;99.90;;;;;;2091427;28;20071;-71
2023/07/14 03:39:24;;;;;;;6.13;3.45;;;17.10;99.90;;;;;;2093454;28;20028;-71
2023/07/14 03:40:25;;;;;;;6.68;3.05;;;17.00;99.90;;;;;;2092415;28;20021;-71
2023/07/14 03:41:25;;;;;;;3.55;2.72;;;17.00;99.90;;;;;;2091361;28;20092;-71
2023/07/14 03:42:26;;;;;;;4.65;3.17;;;17.00;99.90;;;;;;2090929;28;20035;-71
2023/07/14 03:43:26;;;;;;;6.88;3.10;;;17.00;99.90;;;;;;2093815;28;20056;-71
2023/07/14 03:44:27;;;;;;;3.72;2.38;;;17.00;99.90;;;;;;2091952;28;20032;-71
2023/07/14 03:45:27;;;;;;;2.97;2.70;;;17.00;99.90;;;;;;2091934;28;20020;-71
2023/07/14 03:46:28;;;;;;;5.00;3.00;;;17.00;99.90;;;;;;2092247;28;20241;-71
2023/07/14 03:47:28;;;;;;;5.20;3.30;;;17.00;99.90;;;;;;2092329;28;20054;-71
2023/07/14 03:48:29;;;;;;;6.18;3.22;;;17.00;99.90;;;;;;2094011;28;20055;-71
2023/07/14 03:49:30;;;;;;;4.05;3.50;;;17.00;99.90;;;;;;2091647;28;20017;-71
2023/07/14 03:50:31;;;;;;;3.47;3.13;;;17.00;99.90;;;;;;2095808;28;20028;-71
2023/07/14 03:51:32;;;;;;;5.32;2.90;;;17.00;99.90;;;;;;2094567;28;20027;-71
2023/07/14 03:52:32;;;;;;;3.45;3.08;;;17.00;99.90;;;;;;2093813;28;20036;-71
2023/07/14 03:53:33;;;;;;;5.82;3.58;;;17.00;99.90;;;;;;2092753;28;20374;-71
2023/07/14 03:54:34;;;;;;;3.45;3.05;;;16.90;99.90;;;;;;2092021;28;20070;-71
2023/07/14 03:55:34;;;;;;;4.18;3.20;;;16.90;99.90;;;;;;2094141;28;20071;-71
2023/07/14 03:56:35;;;;;;;3.83;2.90;;;16.90;99.90;;;;;;2092231;28;20128;-71
2023/07/14 03:57:36;;;;;;;6.22;3.20;;;16.90;99.90;;;;;;2091659;28;20025;-71
2023/07/14 03:58:39;;;;;;;8.10;3.20;;;16.90;99.90;;;;;;2091671;28;20111;-71
2023/07/14 03:59:40;;;;;;;4.18;3.30;;;16.90;99.90;;;;;;2094499;28;20012;-71
2023/07/14 04:00:40;;;;;;;6.35;3.00;;;16.90;99.90;;;;;;2092261;28;20016;-71
2023/07/14 04:01:41;;;;;;;5.43;3.20;;;16.90;99.90;;;;;;2095235;28;20048;-71
2023/07/14 04:02:42;;;;;;;8.90;3.33;;;16.90;99.90;;;;;;2094991;28;20583;-71
2023/07/14 04:03:42;;;;;;;3.05;2.70;;;16.90;99.90;;;;;;2092227;28;20024;-71
2023/07/14 04:04:43;;;;;;;3.75;2.67;;;16.90;99.90;;;;;;2092743;28;20114;-71
2023/07/14 04:05:46;;;;;;;6.40;2.95;;;16.90;99.90;;;;;;2092621;28;20049;-71
2023/07/14 04:06:47;;;;;;;3.22;2.85;;;16.90;99.90;;;;;;2094439;28;20028;-71
2023/07/14 04:07:48;;;;;;;6.38;2.90;;;16.90;99.90;;;;;;2093902;28;20021;-71
2023/07/14 04:08:52;;;;;;;4.45;2.70;;;16.90;99.90;;;;;;2092439;28;20025;-71
2023/07/14 04:09:53;;;;;;;4.90;2.90;;;16.90;99.90;;;;;;2092379;28;20024;-71
2023/07/14 04:10:53;;;;;;;4.35;2.65;;;16.90;99.90;;;;;;2092556;28;20035;-71
2023/07/14 04:11:54;;;;;;;4.82;3.13;;;17.00;99.90;;;;;;2091848;28;20071;-71
2023/07/14 04:12:57;;;;;;;4.45;3.13;;;17.00;99.90;;;;;;2093606;28;20025;-71
2023/07/14 04:13:57;;;;;;;5.47;3.33;;;17.00;99.90;;;;;;2093426;28;20028;-71
2023/07/14 04:14:58;;;;;;;5.35;2.65;;;17.00;99.90;;;;;;2092894;28;20068;-71
2023/07/14 04:15:59;;;;;;;3.25;2.67;;;17.00;99.90;;;;;;2090167;28;20029;-71
2023/07/14 04:16:59;;;;;;;5.00;3.30;;;17.00;99.90;;;;;;2091720;28;20067;-71
2023/07/14 04:18:00;;;;;;;4.65;2.97;;;17.10;99.90;;;;;;2092410;28;20028;-71
2023/07/14 04:19:00;;;;;;;7.45;2.80;;;17.10;99.90;;;;;;2092872;28;20024;-71
2023/07/14 04:20:01;;;;;;;4.15;2.90;;;17.10;99.90;;;;;;2092215;28;20056;-71
2023/07/14 04:21:02;;;;;;;3.40;2.97;;;17.10;99.90;;;;;;2091770;28;20021;-71
2023/07/14 04:22:03;;;;;;;3.42;2.45;;;17.10;99.90;;;;;;2090375;28;20090;-71
2023/07/14 04:23:05;;;;;;;4.72;3.10;;;17.10;99.90;;;;;;2092994;28;20078;-71
2023/07/14 04:24:06;;;;;;;5.45;3.08;;;17.10;99.90;;;;;;2091974;28;20021;-71
2023/07/14 04:25:07;;;;;;;5.82;3.05;;;17.10;99.90;;;;;;2091883;28;20032;-71
2023/07/14 04:26:08;;;;;;;5.40;3.35;;;17.20;99.90;;;;;;2091196;28;20755;-71
2023/07/14 04:27:09;;;;;;;5.28;3.13;;;17.20;99.90;;;;;;2091115;28;20028;-71
2023/07/14 04:28:09;;;;;;;4.25;3.03;;;17.20;99.90;;;;;;2092749;28;20050;-71
2023/07/14 04:29:11;;;;;;;4.30;3.33;;;17.20;99.90;;;;;;2091347;28;20488;-71
2023/07/14 04:30:12;;;;;;;7.10;3.28;;;17.30;99.90;;;;;;2091578;28;20024;-71
2023/07/14 04:31:13;;;;;;;4.22;3.38;;;17.40;99.90;;;;;;2092093;28;20068;-71
2023/07/14 04:32:13;;;;;;;4.55;3.22;;;17.50;99.90;;;;;;2091614;28;20531;-70
2023/07/14 04:33:14;;;;;;;6.90;3.80;;;17.70;99.90;;;;;;2092910;28;20028;-71
2023/07/14 04:34:14;;;;;;;5.28;3.45;;;17.80;99.90;;;;;;2090469;28;20020;-71
2023/07/14 04:35:15;;;;;;;6.60;2.90;;;17.90;99.90;;;;;;2090964;28;20021;-71
2023/07/14 04:36:16;;;;;;;5.22;2.95;;;18.00;99.90;;;;;;2092049;28;20028;-71
2023/07/14 04:37:17;;;;;;;7.85;3.15;;;18.10;99.90;;;;;;2093987;28;20021;-71
2023/07/14 04:38:18;;;;;;;6.28;3.78;;;18.10;99.90;;;;;;2092371;28;20056;-71
2023/07/14 04:39:19;;;;;;;8.32;3.95;;;18.20;99.90;;;;;;2092518;28;20056;-71
2023/07/14 04:40:19;;;;;;;8.07;3.53;;;18.20;99.90;;;;;;2092228;28;20020;-71
2023/07/14 04:41:20;;;;;;;6.72;3.30;;;18.30;99.90;;;;;;2091360;28;20021;-71
2023/07/14 04:42:20;;;;;;;5.70;3.00;;;18.30;99.90;;;;;;2091719;28;20081;-71
2023/07/14 04:43:21;;;;;;;3.22;2.30;;;18.30;99.90;;;;;;2091642;28;20419;-71
2023/07/14 04:44:22;;;;;;;6.43;3.00;;;18.40;99.90;;;;;;2092381;28;20032;-71
2023/07/14 04:45:23;;;;;;;5.72;2.53;;;18.40;99.90;;;;;;2091373;28;20048;-71
2023/07/14 04:46:23;;;;;;;6.03;2.95;;;18.50;99.90;;;;;;2092333;28;20029;-71
2023/07/14 04:47:24;;;;;;;3.33;2.55;;;18.60;99.90;;;;;;2092423;28;20104;-71
2023/07/14 04:48:24;;;;;;;3.42;2.50;;;18.60;99.90;;;;;;2093751;28;20021;-71
2023/07/14 04:49:25;;;;;;;5.78;2.80;;;18.60;99.90;;;;;;2091905;28;20675;-71
2023/07/14 04:50:26;;;;;;;5.90;3.03;;;18.70;99.90;;;;;;2091257;28;20043;-71
2023/07/14 04:51:26;;;;;;;3.40;2.42;;;18.70;99.90;;;;;;2090132;28;20488;-71
2023/07/14 04:52:27;;;;;;;4.10;2.92;;;18.70;99.90;;;;;;2091933;28;20024;-71
2023/07/14 04:53:28;;;;;;;5.72;2.85;;;18.70;99.90;;;;;;2091169;28;20052;-71
2023/07/14 04:54:29;;;;;;;2.85;2.03;;;18.70;99.90;;;;;;2092876;28;20041;-71
2023/07/14 04:55:29;;;;;;;7.53;3.15;;;18.80;99.90;;;;;;2091476;28;20714;-71
2023/07/14 04:56:30;;;;;;;9.75;2.63;;;18.80;99.90;;;;;;2092999;28;20488;-71
2023/07/14 04:57:30;;;;;;;4.97;2.67;;;18.80;99.90;;;;;;2091095;28;20532;-71
2023/07/14 04:58:31;;;;;;;3.70;2.72;;;18.80;99.90;;;;;;2090705;28;20017;-71
2023/07/14 04:59:33;;;;;;;5.65;2.60;;;18.80;99.90;;;;;;2090147;28;20078;-71
2023/07/14 05:00:35;;;;;;;4.03;2.28;;;18.90;99.90;;;;;;2092170;28;20028;-71
2023/07/14 05:01:37;;;;;;;6.25;2.58;;;18.90;99.90;;;;;;2092662;28;20035;-71
2023/07/14 05:02:37;;;;;;;5.22;2.78;;;18.90;99.90;;;;;;2091334;28;20020;-71
2023/07/14 05:03:38;;;;;;;4.03;2.70;;;18.90;99.90;;;;;;2094489;28;20036;-71
2023/07/14 05:04:42;;;;;;;6.35;2.65;;;18.90;99.90;;;;;;2089473;28;20029;-71
2023/07/14 05:05:42;;;;;;;7.13;2.72;;;18.90;99.90;;;;;;2090487;28;20028;-71
2023/07/14 05:06:43;;;;;;;5.70;2.58;;;18.90;99.90;;;;;;2091018;28;20743;-71
2023/07/14 05:07:44;;;;;;;4.30;2.60;;;18.90;99.90;;;;;;2091590;28;20025;-71
2023/07/14 05:08:44;;;;;;;7.70;2.38;;;18.90;99.90;;;;;;2091339;28;20027;-71
2023/07/14 05:09:45;;;;;;;4.40;2.65;;;18.90;99.90;;;;;;2090727;28;20108;-71
2023/07/14 05:10:45;;;;;;;5.55;2.45;;;19.00;99.90;;;;;;2090829;28;20577;-71
2023/07/14 05:11:46;;;;;;;6.78;3.03;;;19.00;99.90;;;;;;2092724;28;20460;-71
2023/07/14 05:12:54;;;;;;;3.28;2.42;;;19.00;99.90;;;;;;2089646;28;20163;-71
2023/07/14 05:13:55;;;;;;;5.43;2.50;;;19.00;99.90;;;;;;2091775;28;20543;-71
2023/07/14 05:14:55;;;;;;;4.03;3.28;;;19.00;99.90;;;;;;2092609;28;20110;-71
2023/07/14 05:15:57;;;;;;;4.45;2.72;;;19.00;99.90;;;;;;2092350;28;20096;-71
2023/07/14 05:16:57;;;;;;;6.72;3.05;;;19.00;99.90;;;;;;2091928;28;20111;-71
2023/07/14 05:17:58;;;;;;;6.15;2.42;;;19.10;99.90;;;;;;2091245;28;20025;-71
2023/07/14 05:18:58;;;;;;;4.93;2.42;;;19.10;99.90;;;;;;2092060;28;20071;-71
2023/07/14 05:19:59;;;;;;;4.32;2.35;;;19.10;99.90;;;;;;2090662;28;20411;-71
2023/07/14 05:21:04;;;;;;;5.82;2.70;;;19.10;99.90;;;;;;2092237;28;20032;-71
2023/07/14 05:22:05;;;;;;;3.85;2.35;;;19.10;99.90;;;;;;2093870;28;20033;-71
2023/07/14 05:23:06;;;;;;;4.38;2.50;;;19.10;99.90;;;;;;2090293;28;20547;-71
2023/07/14 05:24:06;;;;;;;4.10;2.33;;;19.10;99.90;;;;;;2091939;28;20028;-71
2023/07/14 05:25:07;;;;;;;8.13;2.58;;;19.20;99.90;;;;;;2091291;28;20380;-71
2023/07/14 05:26:08;;;;;;;5.82;2.92;;;19.20;99.90;;;;;;2092579;28;20052;-71
2023/07/14 05:27:08;;;;;;;5.72;2.60;;;19.20;99.90;;;;;;2089690;28;20029;-71
2023/07/14 05:28:09;;;;;;;3.45;2.67;;;19.20;99.90;;;;;;2090723;28;20024;-71